createdAt,value
2023-05-17T03:47:43.137Z,87.40
2023-05-17T03:50:10.544Z,87.90
2023-05-17T03:52:37.882Z,87.40
2023-05-17T03:55:05.060Z,87.60
2023-05-17T03:57:32.034Z,87.40
2023-05-17T03:59:59.278Z,87.40
2023-05-17T04:02:26.415Z,87.30
2023-05-17T04:04:53.542Z,87.70
2023-05-17T04:07:20.689Z,87.60
2023-05-17T04:09:47.814Z,87.50
2023-05-17T04:12:15.096Z,87.70
2023-05-17T04:14:42.064Z,88.00
2023-05-17T04:17:09.035Z,87.90
2023-05-17T04:19:36.022Z,87.50
2023-05-17T04:22:03.155Z,88.50
2023-05-17T04:24:30.141Z,87.20
2023-05-17T04:26:57.474Z,87.90
2023-05-17T04:29:24.418Z,87.90
2023-05-17T04:31:51.529Z,88.10
2023-05-17T04:34:18.464Z,87.70
2023-05-17T04:36:45.480Z,87.20
2023-05-17T04:39:12.474Z,87.60
2023-05-17T04:41:39.478Z,86.90
2023-05-17T04:44:07.513Z,86.10
2023-05-17T04:46:34.534Z,86.70
2023-05-17T04:49:03.252Z,86.30
2023-05-17T04:51:30.745Z,87.20
2023-05-17T04:54:00.930Z,86.50
2023-05-17T04:56:28.345Z,86.60
2023-05-17T04:58:55.341Z,85.80
2023-05-17T05:01:22.427Z,85.90
2023-05-17T05:03:49.541Z,86.20
2023-05-17T05:06:16.570Z,85.00
2023-05-17T05:08:43.563Z,84.70
2023-05-17T05:11:10.570Z,85.20
2023-05-17T05:13:38.917Z,85.40
2023-05-17T05:16:06.222Z,85.90
2023-05-17T05:18:33.386Z,85.60
2023-05-17T05:21:00.667Z,86.30
2023-05-17T05:23:27.621Z,86.10
2023-05-17T05:25:54.650Z,85.60
2023-05-17T05:28:21.602Z,85.30
2023-05-17T05:30:48.548Z,84.10
2023-05-17T05:33:15.627Z,84.60
2023-05-17T05:35:43.462Z,84.80
2023-05-17T05:38:10.624Z,85.60
2023-05-17T05:40:37.632Z,85.40
2023-05-17T05:43:04.941Z,84.70
2023-05-17T05:45:32.013Z,85.00
2023-05-17T05:47:59.159Z,85.30
2023-05-17T05:50:26.226Z,84.30
2023-05-17T05:52:56.278Z,84.70
2023-05-17T05:55:30.812Z,84.20
2023-05-17T05:57:57.837Z,84.40
2023-05-17T06:00:24.831Z,85.00
2023-05-17T06:02:53.498Z,85.40
2023-05-17T06:05:20.708Z,85.20
2023-05-17T06:07:47.707Z,85.00
2023-05-17T06:10:14.756Z,84.70
2023-05-17T06:12:41.742Z,85.20
2023-05-17T06:15:08.935Z,84.40
2023-05-17T06:17:36.071Z,84.50
2023-05-17T06:20:03.530Z,84.30
2023-05-17T06:22:30.590Z,84.00
2023-05-17T06:24:57.779Z,84.40
2023-05-17T06:27:24.813Z,84.80
2023-05-17T06:29:51.818Z,84.60
2023-05-17T06:32:18.739Z,84.70
2023-05-17T06:34:45.706Z,85.00
2023-05-17T06:37:12.714Z,84.10
2023-05-17T06:39:40.060Z,84.30
2023-05-17T06:42:07.105Z,84.90
2023-05-17T06:44:34.154Z,84.80
2023-05-17T06:47:01.192Z,85.20
2023-05-17T06:49:28.195Z,85.80
2023-05-17T06:51:57.387Z,85.60
2023-05-17T06:54:24.337Z,85.50
2023-05-17T06:56:51.529Z,85.40
2023-05-17T06:59:18.452Z,84.10
2023-05-17T07:01:45.425Z,84.50
2023-05-17T07:04:12.393Z,85.40
2023-05-17T07:06:39.491Z,85.60
2023-05-17T07:09:07.110Z,85.60
2023-05-17T07:11:34.080Z,86.20
2023-05-17T07:14:01.071Z,85.70
2023-05-17T07:16:28.236Z,85.10
2023-05-17T07:18:55.777Z,85.60
2023-05-17T07:21:23.753Z,85.80
2023-05-17T07:23:50.931Z,85.00
2023-05-17T07:26:19.437Z,85.30
2023-05-17T07:28:46.570Z,85.20
2023-05-17T07:31:13.683Z,85.10
2023-05-17T07:33:40.691Z,85.00
2023-05-17T07:36:08.011Z,85.60
2023-05-17T07:38:37.982Z,85.90
2023-05-17T07:41:09.411Z,85.30
2023-05-17T07:43:37.542Z,85.50
2023-05-17T07:46:04.871Z,86.10
2023-05-17T07:48:32.051Z,86.20
2023-05-17T07:50:59.133Z,85.70
2023-05-17T07:53:26.069Z,85.70
2023-05-17T07:55:53.137Z,85.70
2023-05-17T07:58:20.162Z,85.30
2023-05-17T08:00:47.393Z,86.40
2023-05-17T08:03:17.505Z,85.50
2023-05-17T08:05:44.737Z,86.00
2023-05-17T08:08:11.755Z,85.60
2023-05-17T08:10:39.423Z,86.00
2023-05-17T08:13:06.385Z,85.50
2023-05-17T08:15:33.431Z,84.00
2023-05-17T08:18:02.935Z,84.40
2023-05-17T08:20:31.409Z,83.80
2023-05-17T08:22:58.387Z,85.80
2023-05-17T08:25:25.406Z,85.40
2023-05-17T08:27:52.532Z,83.30
2023-05-17T08:30:28.518Z,84.10
2023-05-17T08:32:56.578Z,82.80
2023-05-17T08:35:24.977Z,82.20
2023-05-17T08:37:53.939Z,82.40
2023-05-17T08:40:21.251Z,82.40
2023-05-17T08:42:48.653Z,82.20
2023-05-17T08:45:15.783Z,83.30
2023-05-17T08:47:43.038Z,82.40
2023-05-17T08:50:11.248Z,82.00
2023-05-17T08:52:40.226Z,81.90
2023-05-17T08:55:08.212Z,82.40
2023-05-17T08:57:38.745Z,80.50
2023-05-17T09:00:15.350Z,80.00
2023-05-17T09:02:42.970Z,80.70
2023-05-17T09:05:10.814Z,80.30
2023-05-17T09:07:38.084Z,80.00
2023-05-17T09:10:05.989Z,80.50
2023-05-17T09:12:36.703Z,80.10
2023-05-17T09:15:14.965Z,80.20
2023-05-17T09:17:43.222Z,79.40
2023-05-17T09:20:10.992Z,78.60
2023-05-17T09:22:38.466Z,80.10
2023-05-17T09:25:05.745Z,80.10
2023-05-17T09:27:32.767Z,80.10
2023-05-17T09:29:59.742Z,79.70
2023-05-17T09:32:28.303Z,80.40
2023-05-17T09:34:58.957Z,80.50
2023-05-17T09:37:26.493Z,80.60
2023-05-17T09:39:54.817Z,78.80
2023-05-17T09:42:26.366Z,78.20
2023-05-17T09:44:57.526Z,79.70
2023-05-17T09:47:25.874Z,79.70
2023-05-17T09:49:53.088Z,79.50
2023-05-17T09:52:20.724Z,77.70
2023-05-17T09:54:54.262Z,78.90
2023-05-17T09:57:21.486Z,78.60
2023-05-17T09:59:48.930Z,78.80
2023-05-17T10:02:25.165Z,78.80
2023-05-17T10:04:53.933Z,79.30
2023-05-17T10:07:21.466Z,78.70
2023-05-17T10:09:49.907Z,77.90
2023-05-17T10:12:18.067Z,77.60
2023-05-17T10:14:45.363Z,76.90
2023-05-17T10:17:12.664Z,77.20
2023-05-17T10:19:40.185Z,77.50
2023-05-17T10:22:21.922Z,77.40
2023-05-17T10:24:51.469Z,79.20
2023-05-17T10:27:18.995Z,78.80
2023-05-17T10:29:49.252Z,79.40
2023-05-17T10:32:19.017Z,78.70
2023-05-17T10:34:49.583Z,79.00
2023-05-17T10:37:24.990Z,78.90
2023-05-17T10:39:53.085Z,78.90
2023-05-17T10:42:21.576Z,76.00
2023-05-17T10:44:48.659Z,76.70
2023-05-17T10:47:15.758Z,76.40
2023-05-17T10:49:47.600Z,76.80
2023-05-17T10:52:18.411Z,76.20
2023-05-17T10:54:47.994Z,76.20
2023-05-17T10:57:21.960Z,78.10
2023-05-17T11:00:01.854Z,77.10
2023-05-17T11:02:28.866Z,78.20
2023-05-17T11:04:57.706Z,78.20
2023-05-17T11:07:27.182Z,76.30
2023-05-17T11:09:55.965Z,76.80
2023-05-17T11:12:32.787Z,77.70
2023-05-17T11:15:00.757Z,77.20
2023-05-17T11:17:34.084Z,77.00
2023-05-17T11:20:02.074Z,76.10
2023-05-17T11:22:35.160Z,76.60
2023-05-17T11:25:05.585Z,77.60
2023-05-17T11:27:51.829Z,76.10
2023-05-17T11:30:26.721Z,76.80
2023-05-17T11:32:57.420Z,75.70
2023-05-17T11:35:26.799Z,75.40
2023-05-17T11:37:54.606Z,76.50
2023-05-17T11:40:25.139Z,76.30
2023-05-17T11:43:09.988Z,76.90
2023-05-17T11:45:53.732Z,77.20
2023-05-17T11:48:21.883Z,75.50
2023-05-17T11:50:49.486Z,74.80
2023-05-17T11:53:16.769Z,75.20
2023-05-17T11:55:44.760Z,75.60
2023-05-17T11:58:12.355Z,76.00
2023-05-17T12:00:42.056Z,74.70
2023-05-17T12:03:28.900Z,73.60
2023-05-17T12:06:06.530Z,74.40
2023-05-17T12:08:34.347Z,75.60
2023-05-17T12:11:02.095Z,74.80
2023-05-17T12:13:30.335Z,74.80
2023-05-17T12:16:01.169Z,76.40
2023-05-17T12:18:36.609Z,76.40
2023-05-17T12:21:03.976Z,76.20
2023-05-17T12:23:31.115Z,75.00
2023-05-17T12:26:05.191Z,73.30
2023-05-17T12:28:32.269Z,74.20
2023-05-17T12:31:02.763Z,73.70
2023-05-17T12:33:35.371Z,74.10
2023-05-17T12:36:03.589Z,74.30
2023-05-17T12:38:33.081Z,74.60
2023-05-17T12:41:03.786Z,74.30
2023-05-17T12:43:33.123Z,75.60
2023-05-17T12:46:05.385Z,74.60
2023-05-17T12:48:33.295Z,74.40
2023-05-17T12:51:11.940Z,72.90
2023-05-17T12:53:43.113Z,75.30
2023-05-17T12:56:27.800Z,74.70
2023-05-17T12:59:13.043Z,73.40
2023-05-17T13:01:42.363Z,73.50
2023-05-17T13:04:09.998Z,74.40
2023-05-17T13:06:44.414Z,74.70
2023-05-17T13:09:11.741Z,73.30
2023-05-17T13:11:41.347Z,74.00
2023-05-17T13:14:09.123Z,73.90
2023-05-17T13:16:39.724Z,72.90
2023-05-17T13:19:13.905Z,75.60
2023-05-17T13:21:41.116Z,74.30
2023-05-17T13:24:09.341Z,73.40
2023-05-17T13:26:36.359Z,73.70
2023-05-17T13:29:03.467Z,73.10
2023-05-17T13:31:30.441Z,73.70
2023-05-17T13:33:57.590Z,74.40
2023-05-17T13:36:24.635Z,73.50
2023-05-17T13:38:51.776Z,73.20
2023-05-17T13:41:18.890Z,74.40
2023-05-17T13:43:46.071Z,71.40
2023-05-17T13:46:13.134Z,72.70
2023-05-17T13:48:42.602Z,71.40
2023-05-17T13:51:10.073Z,72.00
2023-05-17T13:53:38.770Z,73.80
2023-05-17T13:56:06.102Z,73.80
2023-05-17T13:58:33.136Z,73.20
2023-05-17T14:01:00.196Z,72.80
2023-05-17T14:03:27.303Z,72.70
2023-05-17T14:05:54.673Z,73.90
2023-05-17T14:08:21.825Z,73.50
2023-05-17T14:10:48.863Z,73.40
2023-05-17T14:13:15.996Z,74.70
2023-05-17T14:15:43.034Z,73.60
2023-05-17T14:18:10.092Z,74.50
2023-05-17T14:20:37.164Z,74.90
2023-05-17T14:23:04.276Z,75.60
2023-05-17T14:25:31.247Z,73.60
2023-05-17T14:27:58.194Z,73.90
2023-05-17T14:30:25.338Z,74.30
2023-05-17T14:32:52.377Z,74.10
2023-05-17T14:35:19.379Z,74.10
2023-05-17T14:37:46.502Z,73.30
2023-05-17T14:40:13.646Z,74.00
2023-05-17T14:42:40.929Z,74.20
2023-05-17T14:45:08.279Z,74.30
2023-05-17T14:47:36.800Z,74.60
2023-05-17T14:50:04.316Z,75.80
2023-05-17T14:52:31.429Z,76.10
2023-05-17T14:54:59.192Z,75.50
2023-05-17T14:57:26.306Z,75.40
2023-05-17T14:59:53.372Z,76.00
2023-05-17T15:02:20.451Z,76.00
2023-05-17T15:04:47.767Z,75.50
2023-05-17T15:07:14.909Z,75.10
2023-05-17T15:09:42.300Z,74.50
2023-05-17T15:12:11.250Z,75.30
2023-05-17T15:14:40.410Z,75.50
2023-05-17T15:17:07.562Z,76.20
2023-05-17T15:19:34.647Z,76.70
2023-05-17T15:22:01.948Z,76.40
2023-05-17T15:24:29.446Z,76.40
2023-05-17T15:26:56.768Z,76.00
2023-05-17T15:29:23.705Z,76.40
2023-05-17T15:31:50.663Z,76.50
2023-05-17T15:34:17.850Z,76.50
2023-05-17T15:36:44.854Z,75.50
2023-05-17T15:39:11.908Z,75.50
2023-05-17T15:41:40.399Z,75.30
2023-05-17T15:44:08.972Z,76.80
2023-05-17T15:46:36.149Z,77.10
2023-05-17T15:49:03.188Z,77.60
2023-05-17T15:51:30.245Z,75.90
2023-05-17T15:53:57.321Z,76.20
2023-05-17T15:56:24.633Z,76.50
2023-05-17T15:58:51.932Z,76.80
2023-05-17T16:01:18.966Z,76.70
2023-05-17T16:03:46.687Z,76.70
2023-05-17T16:06:14.475Z,77.20
2023-05-17T16:08:41.957Z,77.30
2023-05-17T16:11:09.948Z,77.90
2023-05-17T16:13:37.043Z,77.50
2023-05-17T16:16:04.226Z,76.90
2023-05-17T16:18:32.133Z,77.00
2023-05-17T16:21:03.768Z,77.90
2023-05-17T16:23:31.288Z,78.40
2023-05-17T16:25:58.349Z,78.70
2023-05-17T16:28:25.535Z,78.20
2023-05-17T16:30:52.611Z,78.40
2023-05-17T16:33:22.897Z,78.90
2023-05-17T16:35:50.008Z,79.50
2023-05-17T16:38:17.075Z,77.70
2023-05-17T16:40:44.126Z,77.90
2023-05-17T16:43:15.758Z,78.50
2023-05-17T16:45:43.725Z,78.60
2023-05-17T16:48:14.713Z,79.00
2023-05-17T16:50:42.246Z,78.90
2023-05-17T16:53:09.438Z,78.90
2023-05-17T16:55:36.647Z,78.60
2023-05-17T16:58:03.738Z,79.40
2023-05-17T17:00:31.183Z,79.20
2023-05-17T17:02:58.470Z,79.80
2023-05-17T17:05:25.921Z,79.40
2023-05-17T17:07:52.880Z,79.20
2023-05-17T17:10:20.193Z,80.10
2023-05-17T17:12:47.973Z,80.40
2023-05-17T17:15:15.582Z,80.40
2023-05-17T17:17:43.352Z,80.60
2023-05-17T17:20:11.178Z,79.80
2023-05-17T17:22:38.143Z,79.90
2023-05-17T17:25:05.719Z,80.30
2023-05-17T17:27:32.774Z,80.80
2023-05-17T17:29:59.871Z,81.10
2023-05-17T17:32:27.037Z,80.50
2023-05-17T17:34:54.128Z,79.40
2023-05-17T17:37:21.335Z,80.20
2023-05-17T17:39:48.308Z,80.40
2023-05-17T17:42:15.363Z,80.30
2023-05-17T17:44:42.380Z,81.00
2023-05-17T17:47:09.739Z,80.20
2023-05-17T17:49:37.116Z,80.50
2023-05-17T17:52:04.142Z,80.30
2023-05-17T17:54:31.296Z,80.60
2023-05-17T17:56:59.529Z,80.70
2023-05-17T17:59:26.501Z,80.60
2023-05-17T18:01:53.511Z,80.80
2023-05-17T18:04:20.651Z,81.70
2023-05-17T18:06:47.639Z,81.40
2023-05-17T18:09:24.275Z,81.10
2023-05-17T18:11:52.151Z,80.90
2023-05-17T18:14:19.565Z,80.90
2023-05-17T18:16:46.626Z,81.40
2023-05-17T18:19:13.705Z,81.60
2023-05-17T18:21:41.643Z,81.40
2023-05-17T18:24:08.782Z,81.10
2023-05-17T18:26:35.791Z,81.80
2023-05-17T18:29:03.940Z,80.80
2023-05-17T18:31:31.586Z,81.80
2023-05-17T18:33:58.729Z,81.70
2023-05-17T18:36:25.915Z,81.40
2023-05-17T18:38:53.309Z,81.60
2023-05-17T18:41:20.959Z,82.10
2023-05-17T18:43:47.932Z,82.00
2023-05-17T18:46:14.908Z,82.00
2023-05-17T18:48:41.866Z,81.60
2023-05-17T18:51:08.859Z,81.60
2023-05-17T18:53:36.476Z,82.20
2023-05-17T18:56:03.565Z,82.20
2023-05-17T18:58:30.649Z,82.40
2023-05-17T19:00:58.138Z,82.00
2023-05-17T19:03:25.185Z,82.60
2023-05-17T19:05:52.180Z,82.60
2023-05-17T19:08:19.174Z,82.60
2023-05-17T19:10:46.156Z,82.80
2023-05-17T19:13:13.777Z,82.90
2023-05-17T19:15:41.596Z,82.90
2023-05-17T19:18:08.660Z,82.60
2023-05-17T19:20:35.841Z,83.10
2023-05-17T19:23:03.563Z,83.20
2023-05-17T19:25:30.639Z,83.00
2023-05-17T19:27:57.690Z,82.90
2023-05-17T19:30:24.630Z,83.10
2023-05-17T19:32:51.827Z,83.40
2023-05-17T19:35:19.139Z,83.20
2023-05-17T19:37:46.360Z,83.20
2023-05-17T19:40:14.756Z,83.30
2023-05-17T19:42:41.794Z,83.20
2023-05-17T19:45:10.844Z,83.70
2023-05-17T19:47:37.975Z,83.10
2023-05-17T19:50:05.307Z,83.60
2023-05-17T19:52:32.490Z,83.70
2023-05-17T19:54:59.550Z,83.90
2023-05-17T19:57:27.361Z,84.00
2023-05-17T19:59:54.477Z,83.80
2023-05-17T20:02:21.687Z,83.90
2023-05-17T20:04:48.802Z,83.90
2023-05-17T20:07:17.056Z,84.00
2023-05-17T20:09:44.153Z,83.90
2023-05-17T20:12:11.306Z,84.20
2023-05-17T20:14:38.561Z,84.60
2023-05-17T20:17:05.566Z,84.60
2023-05-17T20:19:32.689Z,84.70
2023-05-17T20:22:01.604Z,84.60
2023-05-17T20:24:29.145Z,84.40
2023-05-17T20:26:57.019Z,84.70
2023-05-17T20:29:24.025Z,84.70
2023-05-17T20:31:51.136Z,84.90
2023-05-17T20:34:18.213Z,85.00
2023-05-17T20:36:45.576Z,84.70
2023-05-17T20:39:15.083Z,84.50
2023-05-17T20:41:42.363Z,84.80
2023-05-17T20:44:09.471Z,84.70
2023-05-17T20:46:36.480Z,84.60
2023-05-17T20:49:03.440Z,84.70
2023-05-17T20:51:30.931Z,85.00
2023-05-17T20:53:57.965Z,84.20
2023-05-17T20:56:25.531Z,84.20
2023-05-17T20:58:52.513Z,83.80
2023-05-17T21:01:19.514Z,83.80
2023-05-17T21:03:46.649Z,84.10
2023-05-17T21:06:13.861Z,83.80
2023-05-17T21:08:41.867Z,83.60
2023-05-17T21:11:09.092Z,83.30
2023-05-17T21:13:37.061Z,83.40
2023-05-17T21:16:04.129Z,83.00
2023-05-17T21:18:31.431Z,82.60
2023-05-17T21:20:58.871Z,82.60
2023-05-17T21:23:25.853Z,82.20
2023-05-17T21:25:52.992Z,82.40
2023-05-17T21:28:19.979Z,82.50
2023-05-17T21:30:47.009Z,82.50
2023-05-17T21:33:14.059Z,82.50
2023-05-17T21:35:41.111Z,82.40
2023-05-17T21:38:09.306Z,82.00
2023-05-17T21:40:36.332Z,81.90
2023-05-17T21:43:03.848Z,82.40
2023-05-17T21:45:31.073Z,82.30
2023-05-17T21:47:58.159Z,81.80
2023-05-17T21:50:25.284Z,82.00
2023-05-17T21:52:52.216Z,82.10
2023-05-17T21:55:19.196Z,82.30
2023-05-17T21:57:46.405Z,81.80
2023-05-17T22:00:15.293Z,81.80
2023-05-17T22:02:45.774Z,81.90
2023-05-17T22:05:13.225Z,81.80
2023-05-17T22:07:40.592Z,81.90
2023-05-17T22:10:09.414Z,82.20
2023-05-17T22:12:37.951Z,82.20
2023-05-17T22:15:05.385Z,81.70
2023-05-17T22:17:43.227Z,81.20
2023-05-17T22:20:18.000Z,81.90
2023-05-17T22:22:45.021Z,82.30
2023-05-17T22:25:11.972Z,82.10
2023-05-17T22:27:38.978Z,81.90
2023-05-17T22:30:06.503Z,82.00
2023-05-17T22:32:33.545Z,82.10
2023-05-17T22:35:00.541Z,82.40
2023-05-17T22:37:27.641Z,82.30
2023-05-17T22:39:54.606Z,82.40
2023-05-17T22:42:22.323Z,82.40
2023-05-17T22:44:49.301Z,82.30
2023-05-17T22:47:16.319Z,82.20
2023-05-17T22:49:43.412Z,82.50
2023-05-17T22:52:11.089Z,82.30
2023-05-17T22:54:38.650Z,82.30
2023-05-17T22:57:05.978Z,82.60
2023-05-17T22:59:33.205Z,82.40
